sensor_id;sensor_type;location;lat;lon;timestamp;P1;P2;P0
44045;PMS7003;29709;52.396;16.796;2023-04-03T00:00:33;0;0;0
44045;PMS7003;29709;52.396;16.796;2023-04-03T00:03:49;2;0;0
44045;PMS7003;29709;52.396;16.796;2023-04-03T00:07:04;0;0;0
44045;PMS7003;29709;52.396;16.796;2023-04-03T00:10:23;1;0;0
44045;PMS7003;29709;52.396;16.796;2023-04-03T00:13:36;0;0;0
44045;PMS7003;29709;52.396;16.796;2023-04-03T00:16:50;1;0;0
44045;PMS7003;29709;52.396;16.796;2023-04-03T00:20:03;0;0;0
44045;PMS7003;29709;52.396;16.796;2023-04-03T00:23:18;0;0;0
44045;PMS7003;29709;52.396;16.796;2023-04-03T00:26:31;0;0;0
44045;PMS7003;29709;52.396;16.796;2023-04-03T00:29:44;0;0;0
44045;PMS7003;29709;52.396;16.796;2023-04-03T00:32:57;0;0;0
44045;PMS7003;29709;52.396;16.796;2023-04-03T00:36:11;0;0;0
44045;PMS7003;29709;52.396;16.796;2023-04-03T00:39:27;0;0;0
44045;PMS7003;29709;52.396;16.796;2023-04-03T00:42:41;0;0;0
44045;PMS7003;29709;52.396;16.796;2023-04-03T00:45:58;0;0;0
44045;PMS7003;29709;52.396;16.796;2023-04-03T00:49:12;1;0;0
44045;PMS7003;29709;52.396;16.796;2023-04-03T00:52:28;2;0;0
44045;PMS7003;29709;52.396;16.796;2023-04-03T00:55:43;0;0;0
44045;PMS7003;29709;52.396;16.796;2023-04-03T00:59:19;0;0;0
44045;PMS7003;29709;52.396;16.796;2023-04-03T01:02:27;0;0;0
44045;PMS7003;29709;52.396;16.796;2023-04-03T01:05:40;0;0;0
44045;PMS7003;29709;52.396;16.796;2023-04-03T01:08:53;0;0;0
44045;PMS7003;29709;52.396;16.796;2023-04-03T01:15:29;0;0;0
44045;PMS7003;29709;52.396;16.796;2023-04-03T01:18:47;0;0;0
44045;PMS7003;29709;52.396;16.796;2023-04-03T01:25:26;0;0;0
44045;PMS7003;29709;52.396;16.796;2023-04-03T01:28:39;0;0;0
44045;PMS7003;29709;52.396;16.796;2023-04-03T01:31:53;0;0;0
44045;PMS7003;29709;52.396;16.796;2023-04-03T01:35:09;1;0;0
44045;PMS7003;29709;52.396;16.796;2023-04-03T01:38:22;0;0;0
44045;PMS7003;29709;52.396;16.796;2023-04-03T01:41:36;0;0;0
44045;PMS7003;29709;52.396;16.796;2023-04-03T01:44:49;0;0;0
44045;PMS7003;29709;52.396;16.796;2023-04-03T01:48:02;0;0;0
44045;PMS7003;29709;52.396;16.796;2023-04-03T01:51:16;1;0;0
44045;PMS7003;29709;52.396;16.796;2023-04-03T01:54:29;0;0;0
44045;PMS7003;29709;52.396;16.796;2023-04-03T01:57:42;0;0;0
44045;PMS7003;29709;52.396;16.796;2023-04-03T02:00:55;0;0;0
44045;PMS7003;29709;52.396;16.796;2023-04-03T02:04:09;0;0;0
44045;PMS7003;29709;52.396;16.796;2023-04-03T02:07:22;0;0;0
44045;PMS7003;29709;52.396;16.796;2023-04-03T02:10:36;0;0;0
44045;PMS7003;29709;52.396;16.796;2023-04-03T02:13:49;0;0;0
44045;PMS7003;29709;52.396;16.796;2023-04-03T02:17:02;0;0;0
44045;PMS7003;29709;52.396;16.796;2023-04-03T02:20:23;0;0;0
44045;PMS7003;29709;52.396;16.796;2023-04-03T02:23:37;0;0;0
44045;PMS7003;29709;52.396;16.796;2023-04-03T02:26:54;0;0;0
44045;PMS7003;29709;52.396;16.796;2023-04-03T02:30:07;0;0;0
44045;PMS7003;29709;52.396;16.796;2023-04-03T02:33:23;0;0;0
44045;PMS7003;29709;52.396;16.796;2023-04-03T02:36:36;0;0;0
44045;PMS7003;29709;52.396;16.796;2023-04-03T02:39:51;0;0;0
44045;PMS7003;29709;52.396;16.796;2023-04-03T02:43:04;0;0;0
44045;PMS7003;29709;52.396;16.796;2023-04-03T02:46:17;0;0;0
44045;PMS7003;29709;52.396;16.796;2023-04-03T02:49:31;0;0;0
44045;PMS7003;29709;52.396;16.796;2023-04-03T02:52:44;0;0;0
44045;PMS7003;29709;52.396;16.796;2023-04-03T02:55:57;0;0;0
44045;PMS7003;29709;52.396;16.796;2023-04-03T02:59:10;0;0;0
44045;PMS7003;29709;52.396;16.796;2023-04-03T03:02:23;0;0;0
44045;PMS7003;29709;52.396;16.796;2023-04-03T03:05:37;0;0;0
44045;PMS7003;29709;52.396;16.796;2023-04-03T03:08:50;1;0;0
44045;PMS7003;29709;52.396;16.796;2023-04-03T03:12:03;0;0;0
44045;PMS7003;29709;52.396;16.796;2023-04-03T03:15:17;0;0;0
44045;PMS7003;29709;52.396;16.796;2023-04-03T03:18:32;0;0;0
44045;PMS7003;29709;52.396;16.796;2023-04-03T03:21:46;0;0;0
44045;PMS7003;29709;52.396;16.796;2023-04-03T03:24:59;0;0;0
44045;PMS7003;29709;52.396;16.796;2023-04-03T03:28:13;0;0;0
44045;PMS7003;29709;52.396;16.796;2023-04-03T03:31:27;5;3;2
44045;PMS7003;29709;52.396;16.796;2023-04-03T03:34:40;0;0;0
44045;PMS7003;29709;52.396;16.796;2023-04-03T03:37:53;0;0;0
44045;PMS7003;29709;52.396;16.796;2023-04-03T03:41:07;0;0;0
44045;PMS7003;29709;52.396;16.796;2023-04-03T03:44:20;0;0;0
44045;PMS7003;29709;52.396;16.796;2023-04-03T03:47:34;0;0;0
44045;PMS7003;29709;52.396;16.796;2023-04-03T03:50:48;0;0;0
44045;PMS7003;29709;52.396;16.796;2023-04-03T03:54:03;1;1;0
44045;PMS7003;29709;52.396;16.796;2023-04-03T03:57:16;3;0;0
44045;PMS7003;29709;52.396;16.796;2023-04-03T04:00:29;0;0;0
44045;PMS7003;29709;52.396;16.796;2023-04-03T04:03:43;0;0;0
44045;PMS7003;29709;52.396;16.796;2023-04-03T04:06:56;0;0;0
44045;PMS7003;29709;52.396;16.796;2023-04-03T04:10:09;1;0;0
44045;PMS7003;29709;52.396;16.796;2023-04-03T04:13:22;2;1;0
44045;PMS7003;29709;52.396;16.796;2023-04-03T04:16:36;0;0;0
44045;PMS7003;29709;52.396;16.796;2023-04-03T04:19:50;0;0;0
44045;PMS7003;29709;52.396;16.796;2023-04-03T04:23:03;0;0;0
44045;PMS7003;29709;52.396;16.796;2023-04-03T04:26:16;0;0;0
44045;PMS7003;29709;52.396;16.796;2023-04-03T04:29:29;0;0;0
44045;PMS7003;29709;52.396;16.796;2023-04-03T04:32:49;0;0;0
44045;PMS7003;29709;52.396;16.796;2023-04-03T04:36:02;1;1;0
44045;PMS7003;29709;52.396;16.796;2023-04-03T04:39:15;0;0;0
44045;PMS7003;29709;52.396;16.796;2023-04-03T04:42:29;0;0;0
44045;PMS7003;29709;52.396;16.796;2023-04-03T04:45:42;0;0;0
44045;PMS7003;29709;52.396;16.796;2023-04-03T04:48:55;0;0;0
44045;PMS7003;29709;52.396;16.796;2023-04-03T04:52:08;1;0;0
44045;PMS7003;29709;52.396;16.796;2023-04-03T04:55:22;0;0;0
44045;PMS7003;29709;52.396;16.796;2023-04-03T04:58:35;1;1;0
44045;PMS7003;29709;52.396;16.796;2023-04-03T05:01:49;0;0;0
44045;PMS7003;29709;52.396;16.796;2023-04-03T05:05:02;0;0;0
44045;PMS7003;29709;52.396;16.796;2023-04-03T05:08:16;0;0;0
44045;PMS7003;29709;52.396;16.796;2023-04-03T05:11:29;1;0;0
44045;PMS7003;29709;52.396;16.796;2023-04-03T05:14:43;0;0;0
44045;PMS7003;29709;52.396;16.796;2023-04-03T05:17:56;0;0;0
44045;PMS7003;29709;52.396;16.796;2023-04-03T05:21:09;0;0;0
44045;PMS7003;29709;52.396;16.796;2023-04-03T05:24:22;0;0;0
44045;PMS7003;29709;52.396;16.796;2023-04-03T05:27:35;2;0;0
44045;PMS7003;29709;52.396;16.796;2023-04-03T05:34:11;0;0;0
44045;PMS7003;29709;52.396;16.796;2023-04-03T05:37:24;0;0;0
44045;PMS7003;29709;52.396;16.796;2023-04-03T05:40:38;0;0;0
44045;PMS7003;29709;52.396;16.796;2023-04-03T05:43:51;0;0;0
44045;PMS7003;29709;52.396;16.796;2023-04-03T05:47:04;1;0;0
44045;PMS7003;29709;52.396;16.796;2023-04-03T05:50:17;0;0;0
44045;PMS7003;29709;52.396;16.796;2023-04-03T05:53:31;0;0;0
44045;PMS7003;29709;52.396;16.796;2023-04-03T05:56:50;0;0;0
44045;PMS7003;29709;52.396;16.796;2023-04-03T06:00:04;0;0;0
44045;PMS7003;29709;52.396;16.796;2023-04-03T06:03:19;0;0;0
44045;PMS7003;29709;52.396;16.796;2023-04-03T06:09:58;0;0;0
44045;PMS7003;29709;52.396;16.796;2023-04-03T06:13:11;0;0;0
44045;PMS7003;29709;52.396;16.796;2023-04-03T06:16:25;0;0;0
44045;PMS7003;29709;52.396;16.796;2023-04-03T06:19:38;0;0;0
44045;PMS7003;29709;52.396;16.796;2023-04-03T06:22:52;0;0;0
44045;PMS7003;29709;52.396;16.796;2023-04-03T06:26:05;0;0;0
44045;PMS7003;29709;52.396;16.796;2023-04-03T06:29:18;1;0;0
44045;PMS7003;29709;52.396;16.796;2023-04-03T06:32:33;0;0;0
44045;PMS7003;29709;52.396;16.796;2023-04-03T06:35:46;0;0;0
44045;PMS7003;29709;52.396;16.796;2023-04-03T06:38:59;0;0;0
44045;PMS7003;29709;52.396;16.796;2023-04-03T06:42:12;0;0;0
44045;PMS7003;29709;52.396;16.796;2023-04-03T06:45:26;0;0;0
44045;PMS7003;29709;52.396;16.796;2023-04-03T06:48:40;0;0;0
44045;PMS7003;29709;52.396;16.796;2023-04-03T06:51:54;0;0;0
44045;PMS7003;29709;52.396;16.796;2023-04-03T06:55:09;0;0;0
44045;PMS7003;29709;52.396;16.796;2023-04-03T06:58:25;0;0;0
44045;PMS7003;29709;52.396;16.796;2023-04-03T07:01:40;0;0;0
44045;PMS7003;29709;52.396;16.796;2023-04-03T07:04:54;0;0;0
44045;PMS7003;29709;52.396;16.796;2023-04-03T07:08:08;0;0;0
44045;PMS7003;29709;52.396;16.796;2023-04-03T07:11:24;0;0;0
44045;PMS7003;29709;52.396;16.796;2023-04-03T07:14:42;0;0;0
44045;PMS7003;29709;52.396;16.796;2023-04-03T07:17:56;0;0;0
44045;PMS7003;29709;52.396;16.796;2023-04-03T07:24:34;0;0;0
44045;PMS7003;29709;52.396;16.796;2023-04-03T07:27:51;0;0;0
44045;PMS7003;29709;52.396;16.796;2023-04-03T07:34:31;0;0;0
44045;PMS7003;29709;52.396;16.796;2023-04-03T07:38:45;0;0;0
44045;PMS7003;29709;52.396;16.796;2023-04-03T07:42:00;0;0;0
44045;PMS7003;29709;52.396;16.796;2023-04-03T07:45:14;0;0;0
44045;PMS7003;29709;52.396;16.796;2023-04-03T07:48:27;0;0;0
44045;PMS7003;29709;52.396;16.796;2023-04-03T07:51:40;0;0;0
44045;PMS7003;29709;52.396;16.796;2023-04-03T07:54:55;0;0;0
44045;PMS7003;29709;52.396;16.796;2023-04-03T07:58:09;1;1;0
44045;PMS7003;29709;52.396;16.796;2023-04-03T08:01:24;0;0;0
44045;PMS7003;29709;52.396;16.796;2023-04-03T08:04:37;0;0;0
44045;PMS7003;29709;52.396;16.796;2023-04-03T08:07:53;0;0;0
44045;PMS7003;29709;52.396;16.796;2023-04-03T08:11:06;0;0;0
44045;PMS7003;29709;52.396;16.796;2023-04-03T08:14:24;0;0;0
44045;PMS7003;29709;52.396;16.796;2023-04-03T08:17:37;0;0;0
44045;PMS7003;29709;52.396;16.796;2023-04-03T08:20:51;0;0;0
44045;PMS7003;29709;52.396;16.796;2023-04-03T08:24:04;0;0;0
44045;PMS7003;29709;52.396;16.796;2023-04-03T08:27:18;1;0;0
44045;PMS7003;29709;52.396;16.796;2023-04-03T08:30:31;0;0;0
44045;PMS7003;29709;52.396;16.796;2023-04-03T08:33:45;0;0;0
44045;PMS7003;29709;52.396;16.796;2023-04-03T08:36:59;3;3;2
44045;PMS7003;29709;52.396;16.796;2023-04-03T08:40:14;4;2;1
44045;PMS7003;29709;52.396;16.796;2023-04-03T08:43:37;2;0;0
44045;PMS7003;29709;52.396;16.796;2023-04-03T08:50:24;0;0;0
44045;PMS7003;29709;52.396;16.796;2023-04-03T08:53:55;0;0;0
44045;PMS7003;29709;52.396;16.796;2023-04-03T08:57:09;0;0;0
44045;PMS7003;29709;52.396;16.796;2023-04-03T09:00:25;1;0;0
44045;PMS7003;29709;52.396;16.796;2023-04-03T09:03:43;1;0;0
44045;PMS7003;29709;52.396;16.796;2023-04-03T09:07:03;2;2;1
44045;PMS7003;29709;52.396;16.796;2023-04-03T09:10:23;1;1;1
44045;PMS7003;29709;52.396;16.796;2023-04-03T09:13:46;0;0;0
44045;PMS7003;29709;52.396;16.796;2023-04-03T09:24:01;1;1;0
44045;PMS7003;29709;52.396;16.796;2023-04-03T09:27:20;3;0;0
44045;PMS7003;29709;52.396;16.796;2023-04-03T09:30:33;1;0;0
44045;PMS7003;29709;52.396;16.796;2023-04-03T09:33:50;0;0;0
44045;PMS7003;29709;52.396;16.796;2023-04-03T09:37:11;0;0;0
44045;PMS7003;29709;52.396;16.796;2023-04-03T09:40:39;1;1;1
44045;PMS7003;29709;52.396;16.796;2023-04-03T09:43:54;0;0;0
44045;PMS7003;29709;52.396;16.796;2023-04-03T09:50:33;1;1;0
44045;PMS7003;29709;52.396;16.796;2023-04-03T09:53:49;0;0;0
44045;PMS7003;29709;52.396;16.796;2023-04-03T09:57:07;0;0;0
44045;PMS7003;29709;52.396;16.796;2023-04-03T10:03:50;0;0;0
44045;PMS7003;29709;52.396;16.796;2023-04-03T10:10:38;0;0;0
44045;PMS7003;29709;52.396;16.796;2023-04-03T10:13:52;0;0;0
44045;PMS7003;29709;52.396;16.796;2023-04-03T10:17:17;0;0;0
44045;PMS7003;29709;52.396;16.796;2023-04-03T10:20:39;1;0;0
44045;PMS7003;29709;52.396;16.796;2023-04-03T10:30:51;0;0;0
44045;PMS7003;29709;52.396;16.796;2023-04-03T10:41:07;0;0;0
44045;PMS7003;29709;52.396;16.796;2023-04-03T10:44:31;1;0;0
44045;PMS7003;29709;52.396;16.796;2023-04-03T10:47:56;0;0;0
44045;PMS7003;29709;52.396;16.796;2023-04-03T10:54:52;1;0;0
44045;PMS7003;29709;52.396;16.796;2023-04-03T10:58:11;0;0;0
44045;PMS7003;29709;52.396;16.796;2023-04-03T11:01:33;0;0;0
44045;PMS7003;29709;52.396;16.796;2023-04-03T11:04:51;0;0;0
44045;PMS7003;29709;52.396;16.796;2023-04-03T11:08:17;0;0;0
44045;PMS7003;29709;52.396;16.796;2023-04-03T11:11:37;0;0;0
44045;PMS7003;29709;52.396;16.796;2023-04-03T11:14:54;2;1;1
44045;PMS7003;29709;52.396;16.796;2023-04-03T11:25:03;1;1;1
44045;PMS7003;29709;52.396;16.796;2023-04-03T11:28:23;1;1;1
44045;PMS7003;29709;52.396;16.796;2023-04-03T11:35:02;2;2;2
44045;PMS7003;29709;52.396;16.796;2023-04-03T11:38:22;2;1;1
44045;PMS7003;29709;52.396;16.796;2023-04-03T11:41:41;2;2;1
44045;PMS7003;29709;52.396;16.796;2023-04-03T11:51:45;1;1;1
44045;PMS7003;29709;52.396;16.796;2023-04-03T11:54:59;1;0;0
44045;PMS7003;29709;52.396;16.796;2023-04-03T11:58:15;1;1;1
44045;PMS7003;29709;52.396;16.796;2023-04-03T12:08:30;1;1;0
44045;PMS7003;29709;52.396;16.796;2023-04-03T12:11:52;1;0;0
44045;PMS7003;29709;52.396;16.796;2023-04-03T12:28:45;0;0;0
44045;PMS7003;29709;52.396;16.796;2023-04-03T12:45:47;0;0;0
44045;PMS7003;29709;52.396;16.796;2023-04-03T12:49:04;0;0;0
44045;PMS7003;29709;52.396;16.796;2023-04-03T12:55:58;3;2;2
44045;PMS7003;29709;52.396;16.796;2023-04-03T12:59:22;0;0;0
44045;PMS7003;29709;52.396;16.796;2023-04-03T13:02:37;0;0;0
44045;PMS7003;29709;52.396;16.796;2023-04-03T13:05:51;0;0;0
44045;PMS7003;29709;52.396;16.796;2023-04-03T13:09:05;2;2;1
44045;PMS7003;29709;52.396;16.796;2023-04-03T13:12:24;0;0;0
44045;PMS7003;29709;52.396;16.796;2023-04-03T13:15:41;1;1;1
44045;PMS7003;29709;52.396;16.796;2023-04-03T13:18:58;2;1;1
44045;PMS7003;29709;52.396;16.796;2023-04-03T13:22:19;3;2;1
44045;PMS7003;29709;52.396;16.796;2023-04-03T13:25:36;0;0;0
44045;PMS7003;29709;52.396;16.796;2023-04-03T13:28:58;2;2;1
44045;PMS7003;29709;52.396;16.796;2023-04-03T13:32:20;9;8;6
44045;PMS7003;29709;52.396;16.796;2023-04-03T13:35:39;3;2;2
44045;PMS7003;29709;52.396;16.796;2023-04-03T13:42:26;1;0;0
44045;PMS7003;29709;52.396;16.796;2023-04-03T13:45:53;0;0;0
44045;PMS7003;29709;52.396;16.796;2023-04-03T13:52:34;3;2;2
44045;PMS7003;29709;52.396;16.796;2023-04-03T13:56:00;2;2;1
44045;PMS7003;29709;52.396;16.796;2023-04-03T14:02:48;1;0;0
44045;PMS7003;29709;52.396;16.796;2023-04-03T14:06:01;2;0;0
44045;PMS7003;29709;52.396;16.796;2023-04-03T14:09:19;1;1;0
44045;PMS7003;29709;52.396;16.796;2023-04-03T14:12:35;1;1;1
44045;PMS7003;29709;52.396;16.796;2023-04-03T14:15:53;2;2;1
44045;PMS7003;29709;52.396;16.796;2023-04-03T14:19:06;0;0;0
44045;PMS7003;29709;52.396;16.796;2023-04-03T14:22:21;2;1;1
44045;PMS7003;29709;52.396;16.796;2023-04-03T14:25:42;2;1;1
44045;PMS7003;29709;52.396;16.796;2023-04-03T14:28:56;0;0;0
44045;PMS7003;29709;52.396;16.796;2023-04-03T14:32:11;0;0;0
44045;PMS7003;29709;52.396;16.796;2023-04-03T14:35:27;0;0;0
44045;PMS7003;29709;52.396;16.796;2023-04-03T14:38:40;3;3;2
44045;PMS7003;29709;52.396;16.796;2023-04-03T14:41:54;2;2;1
44045;PMS7003;29709;52.396;16.796;2023-04-03T14:45:09;3;0;0
44045;PMS7003;29709;52.396;16.796;2023-04-03T14:48:25;1;1;1
44045;PMS7003;29709;52.396;16.796;2023-04-03T14:51:39;2;2;2
44045;PMS7003;29709;52.396;16.796;2023-04-03T14:54:53;1;0;0
44045;PMS7003;29709;52.396;16.796;2023-04-03T14:58:09;1;1;1
44045;PMS7003;29709;52.396;16.796;2023-04-03T15:01:26;2;1;0
44045;PMS7003;29709;52.396;16.796;2023-04-03T15:04:40;6;3;2
44045;PMS7003;29709;52.396;16.796;2023-04-03T15:07:57;1;1;0
44045;PMS7003;29709;52.396;16.796;2023-04-03T15:11:13;1;0;0
44045;PMS7003;29709;52.396;16.796;2023-04-03T15:14:27;0;0;0
44045;PMS7003;29709;52.396;16.796;2023-04-03T15:17:41;0;0;0
44045;PMS7003;29709;52.396;16.796;2023-04-03T15:20:55;0;0;0
44045;PMS7003;29709;52.396;16.796;2023-04-03T15:24:09;2;1;1
44045;PMS7003;29709;52.396;16.796;2023-04-03T15:27:22;1;1;0
44045;PMS7003;29709;52.396;16.796;2023-04-03T15:33:55;1;1;0
44045;PMS7003;29709;52.396;16.796;2023-04-03T15:37:08;3;3;3
44045;PMS7003;29709;52.396;16.796;2023-04-03T15:40:21;2;1;1
44045;PMS7003;29709;52.396;16.796;2023-04-03T15:43:35;2;1;0
44045;PMS7003;29709;52.396;16.796;2023-04-03T15:46:48;3;2;1
44045;PMS7003;29709;52.396;16.796;2023-04-03T15:50:04;1;1;1
44045;PMS7003;29709;52.396;16.796;2023-04-03T15:53:20;0;0;0
44045;PMS7003;29709;52.396;16.796;2023-04-03T15:56:33;13;8;6
44045;PMS7003;29709;52.396;16.796;2023-04-03T15:59:46;2;2;1
44045;PMS7003;29709;52.396;16.796;2023-04-03T16:03:00;0;0;0
44045;PMS7003;29709;52.396;16.796;2023-04-03T16:06:18;2;2;1
44045;PMS7003;29709;52.396;16.796;2023-04-03T16:09:31;6;6;3
44045;PMS7003;29709;52.396;16.796;2023-04-03T16:12:47;4;3;2
44045;PMS7003;29709;52.396;16.796;2023-04-03T16:16:00;2;2;1
44045;PMS7003;29709;52.396;16.796;2023-04-03T16:19:14;2;1;0
44045;PMS7003;29709;52.396;16.796;2023-04-03T16:22:27;3;3;2
44045;PMS7003;29709;52.396;16.796;2023-04-03T16:25:42;4;4;2
44045;PMS7003;29709;52.396;16.796;2023-04-03T16:28:59;7;5;4
44045;PMS7003;29709;52.396;16.796;2023-04-03T16:32:14;6;5;4
44045;PMS7003;29709;52.396;16.796;2023-04-03T16:35:27;5;4;3
44045;PMS7003;29709;52.396;16.796;2023-04-03T16:38:42;2;1;0
44045;PMS7003;29709;52.396;16.796;2023-04-03T16:41:55;3;0;0
44045;PMS7003;29709;52.396;16.796;2023-04-03T16:45:08;2;2;1
44045;PMS7003;29709;52.396;16.796;2023-04-03T16:48:22;6;5;4
44045;PMS7003;29709;52.396;16.796;2023-04-03T16:51:35;2;2;2
44045;PMS7003;29709;52.396;16.796;2023-04-03T16:54:49;2;1;1
44045;PMS7003;29709;52.396;16.796;2023-04-03T16:58:04;6;3;2
44045;PMS7003;29709;52.396;16.796;2023-04-03T17:01:18;5;4;3
44045;PMS7003;29709;52.396;16.796;2023-04-03T17:04:34;2;2;1
44045;PMS7003;29709;52.396;16.796;2023-04-03T17:07:47;9;7;6
44045;PMS7003;29709;52.396;16.796;2023-04-03T17:11:01;5;4;3
44045;PMS7003;29709;52.396;16.796;2023-04-03T17:14:14;7;7;7
44045;PMS7003;29709;52.396;16.796;2023-04-03T17:17:27;1;1;0
44045;PMS7003;29709;52.396;16.796;2023-04-03T17:20:41;1;0;0
44045;PMS7003;29709;52.396;16.796;2023-04-03T17:23:55;2;2;2
44045;PMS7003;29709;52.396;16.796;2023-04-03T17:27:14;1;1;1
44045;PMS7003;29709;52.396;16.796;2023-04-03T17:30:27;9;5;4
44045;PMS7003;29709;52.396;16.796;2023-04-03T17:33:40;2;2;1
44045;PMS7003;29709;52.396;16.796;2023-04-03T17:36:54;16;11;7
44045;PMS7003;29709;52.396;16.796;2023-04-03T17:40:07;10;8;6
44045;PMS7003;29709;52.396;16.796;2023-04-03T17:43:21;15;10;8
44045;PMS7003;29709;52.396;16.796;2023-04-03T17:46:34;13;12;8
44045;PMS7003;29709;52.396;16.796;2023-04-03T17:49:48;16;8;6
44045;PMS7003;29709;52.396;16.796;2023-04-03T17:53:03;11;10;8
44045;PMS7003;29709;52.396;16.796;2023-04-03T17:56:17;13;9;3
44045;PMS7003;29709;52.396;16.796;2023-04-03T17:59:36;34;29;17
44045;PMS7003;29709;52.396;16.796;2023-04-03T18:02:52;14;10;6
44045;PMS7003;29709;52.396;16.796;2023-04-03T18:06:08;2;2;2
44045;PMS7003;29709;52.396;16.796;2023-04-03T18:09:24;2;1;1
44045;PMS7003;29709;52.396;16.796;2023-04-03T18:12:40;1;0;0
44045;PMS7003;29709;52.396;16.796;2023-04-03T18:15:56;1;1;1
44045;PMS7003;29709;52.396;16.796;2023-04-03T18:19:15;2;2;2
44045;PMS7003;29709;52.396;16.796;2023-04-03T18:22:28;2;2;2
44045;PMS7003;29709;52.396;16.796;2023-04-03T18:25:41;2;2;2
44045;PMS7003;29709;52.396;16.796;2023-04-03T18:28:59;3;1;1
44045;PMS7003;29709;52.396;16.796;2023-04-03T18:32:15;3;3;1
44045;PMS7003;29709;52.396;16.796;2023-04-03T18:35:30;5;3;3
44045;PMS7003;29709;52.396;16.796;2023-04-03T18:38:45;1;1;0
44045;PMS7003;29709;52.396;16.796;2023-04-03T18:42:02;5;3;2
44045;PMS7003;29709;52.396;16.796;2023-04-03T18:45:20;4;3;2
44045;PMS7003;29709;52.396;16.796;2023-04-03T18:48:35;3;2;2
44045;PMS7003;29709;52.396;16.796;2023-04-03T18:51:53;29;20;13
44045;PMS7003;29709;52.396;16.796;2023-04-03T18:55:07;14;12;8
44045;PMS7003;29709;52.396;16.796;2023-04-03T18:58:24;6;6;4
44045;PMS7003;29709;52.396;16.796;2023-04-03T19:01:38;12;9;6
44045;PMS7003;29709;52.396;16.796;2023-04-03T19:04:52;5;5;4
44045;PMS7003;29709;52.396;16.796;2023-04-03T19:08:06;6;4;3
44045;PMS7003;29709;52.396;16.796;2023-04-03T19:11:19;0;0;0
44045;PMS7003;29709;52.396;16.796;2023-04-03T19:14:32;5;4;3
44045;PMS7003;29709;52.396;16.796;2023-04-03T19:17:45;7;6;4
44045;PMS7003;29709;52.396;16.796;2023-04-03T19:20:59;6;4;3
44045;PMS7003;29709;52.396;16.796;2023-04-03T19:24:12;3;3;3
44045;PMS7003;29709;52.396;16.796;2023-04-03T19:27:30;5;4;3
44045;PMS7003;29709;52.396;16.796;2023-04-03T19:30:44;3;3;2
44045;PMS7003;29709;52.396;16.796;2023-04-03T19:34:00;7;5;4
44045;PMS7003;29709;52.396;16.796;2023-04-03T19:37:16;6;6;4
44045;PMS7003;29709;52.396;16.796;2023-04-03T19:40:30;5;5;4
44045;PMS7003;29709;52.396;16.796;2023-04-03T19:43:45;3;3;2
44045;PMS7003;29709;52.396;16.796;2023-04-03T19:46:58;7;6;4
44045;PMS7003;29709;52.396;16.796;2023-04-03T19:50:12;2;2;1
44045;PMS7003;29709;52.396;16.796;2023-04-03T19:53:26;4;3;2
44045;PMS7003;29709;52.396;16.796;2023-04-03T19:56:40;4;3;2
44045;PMS7003;29709;52.396;16.796;2023-04-03T19:59:54;1;1;1
44045;PMS7003;29709;52.396;16.796;2023-04-03T20:03:10;1;0;0
44045;PMS7003;29709;52.396;16.796;2023-04-03T20:06:23;0;0;0
44045;PMS7003;29709;52.396;16.796;2023-04-03T20:09:37;1;0;0
44045;PMS7003;29709;52.396;16.796;2023-04-03T20:12:50;2;1;1
44045;PMS7003;29709;52.396;16.796;2023-04-03T20:16:04;2;0;0
44045;PMS7003;29709;52.396;16.796;2023-04-03T20:19:19;1;0;0
44045;PMS7003;29709;52.396;16.796;2023-04-03T20:22:33;3;2;1
44045;PMS7003;29709;52.396;16.796;2023-04-03T20:25:48;3;3;3
44045;PMS7003;29709;52.396;16.796;2023-04-03T20:29:03;5;4;3
44045;PMS7003;29709;52.396;16.796;2023-04-03T20:32:17;6;4;3
44045;PMS7003;29709;52.396;16.796;2023-04-03T20:35:30;5;2;2
44045;PMS7003;29709;52.396;16.796;2023-04-03T20:38:44;4;4;3
44045;PMS7003;29709;52.396;16.796;2023-04-03T20:41:59;3;2;1
44045;PMS7003;29709;52.396;16.796;2023-04-03T20:45:14;3;1;1
44045;PMS7003;29709;52.396;16.796;2023-04-03T20:48:28;0;0;0
44045;PMS7003;29709;52.396;16.796;2023-04-03T20:51:42;8;6;4
44045;PMS7003;29709;52.396;16.796;2023-04-03T20:54:56;2;1;0
44045;PMS7003;29709;52.396;16.796;2023-04-03T20:58:09;5;3;2
44045;PMS7003;29709;52.396;16.796;2023-04-03T21:01:23;1;0;0
44045;PMS7003;29709;52.396;16.796;2023-04-03T21:04:43;3;3;3
44045;PMS7003;29709;52.396;16.796;2023-04-03T21:21:49;1;0;0
44045;PMS7003;29709;52.396;16.796;2023-04-03T21:25:04;0;0;0
44045;PMS7003;29709;52.396;16.796;2023-04-03T21:28:17;1;0;0
44045;PMS7003;29709;52.396;16.796;2023-04-03T21:34:55;3;1;0
44045;PMS7003;29709;52.396;16.796;2023-04-03T21:38:09;3;1;0
44045;PMS7003;29709;52.396;16.796;2023-04-03T21:41:22;0;0;0
44045;PMS7003;29709;52.396;16.796;2023-04-03T21:44:36;1;1;0
44045;PMS7003;29709;52.396;16.796;2023-04-03T21:47:50;1;0;0
44045;PMS7003;29709;52.396;16.796;2023-04-03T21:51:03;0;0;0
44045;PMS7003;29709;52.396;16.796;2023-04-03T21:54:18;0;0;0
44045;PMS7003;29709;52.396;16.796;2023-04-03T21:57:32;2;0;0
44045;PMS7003;29709;52.396;16.796;2023-04-03T22:00:45;2;1;1
44045;PMS7003;29709;52.396;16.796;2023-04-03T22:03:59;0;0;0
44045;PMS7003;29709;52.396;16.796;2023-04-03T22:07:14;2;1;1
44045;PMS7003;29709;52.396;16.796;2023-04-03T22:10:27;0;0;0
44045;PMS7003;29709;52.396;16.796;2023-04-03T22:13:41;3;2;1
44045;PMS7003;29709;52.396;16.796;2023-04-03T22:16:55;2;1;0
44045;PMS7003;29709;52.396;16.796;2023-04-03T22:20:09;1;1;0
44045;PMS7003;29709;52.396;16.796;2023-04-03T22:23:23;1;0;0
44045;PMS7003;29709;52.396;16.796;2023-04-03T22:26:39;0;0;0
44045;PMS7003;29709;52.396;16.796;2023-04-03T22:29:56;0;0;0
44045;PMS7003;29709;52.396;16.796;2023-04-03T22:33:09;4;0;0
44045;PMS7003;29709;52.396;16.796;2023-04-03T22:36:22;0;0;0
44045;PMS7003;29709;52.396;16.796;2023-04-03T22:39:35;0;0;0
44045;PMS7003;29709;52.396;16.796;2023-04-03T22:42:49;0;0;0
44045;PMS7003;29709;52.396;16.796;2023-04-03T22:46:03;1;0;0
44045;PMS7003;29709;52.396;16.796;2023-04-03T22:49:18;0;0;0
44045;PMS7003;29709;52.396;16.796;2023-04-03T22:52:31;0;0;0
44045;PMS7003;29709;52.396;16.796;2023-04-03T22:59:10;0;0;0
44045;PMS7003;29709;52.396;16.796;2023-04-03T23:02:24;1;0;0
44045;PMS7003;29709;52.396;16.796;2023-04-03T23:05:37;0;0;0
44045;PMS7003;29709;52.396;16.796;2023-04-03T23:08:50;0;0;0
44045;PMS7003;29709;52.396;16.796;2023-04-03T23:12:04;2;1;0
44045;PMS7003;29709;52.396;16.796;2023-04-03T23:15:21;4;0;0
44045;PMS7003;29709;52.396;16.796;2023-04-03T23:18:34;1;1;0
44045;PMS7003;29709;52.396;16.796;2023-04-03T23:21:51;4;0;0
44045;PMS7003;29709;52.396;16.796;2023-04-03T23:25:04;5;1;0
44045;PMS7003;29709;52.396;16.796;2023-04-03T23:28:19;1;0;0
44045;PMS7003;29709;52.396;16.796;2023-04-03T23:31:32;1;1;0
44045;PMS7003;29709;52.396;16.796;2023-04-03T23:34:45;3;3;1
44045;PMS7003;29709;52.396;16.796;2023-04-03T23:37:58;2;1;0
44045;PMS7003;29709;52.396;16.796;2023-04-03T23:41:12;3;1;0
44045;PMS7003;29709;52.396;16.796;2023-04-03T23:44:25;1;1;1
44045;PMS7003;29709;52.396;16.796;2023-04-03T23:47:38;3;2;1
44045;PMS7003;29709;52.396;16.796;2023-04-03T23:50:51;3;2;1
44045;PMS7003;29709;52.396;16.796;2023-04-03T23:54:04;1;1;1
44045;PMS7003;29709;52.396;16.796;2023-04-03T23:57:18;1;1;1
